Time;durP1;ratioP1;P1;durP2;ratioP2;P2;SDS_P1;SDS_P2;PMS_P1;PMS_P2;Temp;Humidity;BMP_temperature;BMP_pressure;BME280_temperature;BME280_humidity;BME280_pressure;Samples;Min_cycle;Max_cycle;Signal;HPM_P1;HPM_P2
2023/11/12 00:00:41;;;;;;;37.83;17.45;;;2.40;99.90;;;;;;6226475;28;20052;-82
2023/11/12 00:03:44;;;;;;;37.15;16.95;;;2.30;99.90;;;;;;6251702;28;20073;-82
2023/11/12 00:06:46;;;;;;;34.58;16.67;;;2.40;99.90;;;;;;6255318;28;20060;-82
2023/11/12 00:09:48;;;;;;;34.70;16.33;;;2.30;99.90;;;;;;6238730;28;20054;-82
2023/11/12 00:12:49;;;;;;;36.47;16.05;;;2.30;99.90;;;;;;6257098;28;20503;-82
2023/11/12 00:15:52;;;;;;;33.67;15.93;;;2.40;99.90;;;;;;6266399;28;20037;-83
2023/11/12 00:18:54;;;;;;;34.00;15.45;;;2.30;99.90;;;;;;6278834;28;20069;-84
2023/11/12 00:21:56;;;;;;;36.25;16.77;;;2.30;99.90;;;;;;6238731;28;20648;-84
2023/11/12 00:24:58;;;;;;;31.10;15.95;;;2.40;99.90;;;;;;6261996;28;20060;-84
2023/11/12 00:27:59;;;;;;;32.53;15.20;;;2.30;99.90;;;;;;6239763;28;20057;-84
2023/11/12 00:31:01;;;;;;;34.92;16.23;;;2.30;99.90;;;;;;6258797;28;20049;-83
2023/11/12 00:34:03;;;;;;;35.33;17.38;;;2.30;99.90;;;;;;6248855;28;20064;-83
2023/11/12 00:37:04;;;;;;;35.67;17.70;;;2.20;99.90;;;;;;6267667;28;20052;-83
2023/11/12 00:40:06;;;;;;;41.08;18.42;;;2.20;99.90;;;;;;6245049;28;20104;-83
2023/11/12 00:43:08;;;;;;;36.25;18.50;;;2.20;99.90;;;;;;6264104;28;20060;-86
2023/11/12 00:46:10;;;;;;;40.38;19.65;;;2.20;99.90;;;;;;6227468;28;20702;-84
2023/11/12 00:49:12;;;;;;;43.72;20.90;;;2.20;99.90;;;;;;6226610;28;20046;-82
2023/11/12 00:52:13;;;;;;;39.97;20.38;;;2.10;99.90;;;;;;6268631;28;20063;-82
2023/11/12 00:55:15;;;;;;;42.05;20.33;;;2.10;99.90;;;;;;6227334;28;20050;-82
2023/11/12 00:58:16;;;;;;;37.65;19.63;;;2.20;99.90;;;;;;6267417;28;20087;-84
2023/11/12 01:01:18;;;;;;;44.60;20.67;;;2.10;99.90;;;;;;6251102;28;20060;-83
2023/11/12 01:04:20;;;;;;;43.47;20.77;;;2.20;99.90;;;;;;6226647;28;20061;-83
2023/11/12 01:07:21;;;;;;;37.35;18.52;;;2.20;99.90;;;;;;6242925;28;20424;-84
2023/11/12 01:10:23;;;;;;;33.55;15.93;;;2.20;99.90;;;;;;6268293;28;20060;-83
2023/11/12 01:13:25;;;;;;;30.60;16.10;;;2.20;99.90;;;;;;6229293;28;20095;-84
2023/11/12 01:16:26;;;;;;;35.55;15.85;;;2.20;99.90;;;;;;6249226;28;20052;-84
2023/11/12 01:19:28;;;;;;;30.60;14.27;;;2.30;99.90;;;;;;6226499;28;20061;-84
2023/11/12 01:22:29;;;;;;;30.65;13.68;;;2.20;99.90;;;;;;6250393;28;20071;-84
2023/11/12 01:25:31;;;;;;;23.42;10.23;;;2.30;99.90;;;;;;6226641;28;20053;-83
2023/11/12 01:28:34;;;;;;;23.15;11.15;;;2.40;99.90;;;;;;6260237;28;20045;-84
2023/11/12 01:31:36;;;;;;;23.48;9.88;;;2.50;99.90;;;;;;6225924;28;20053;-84
2023/11/12 01:34:37;;;;;;;20.38;9.48;;;2.60;99.90;;;;;;6250355;28;20102;-83
2023/11/12 01:37:39;;;;;;;18.05;9.90;;;2.70;99.90;;;;;;6226441;28;20057;-84
2023/11/12 01:40:41;;;;;;;22.20;9.45;;;2.80;99.90;;;;;;6249873;28;20148;-84
2023/11/12 01:43:42;;;;;;;18.27;8.85;;;2.90;99.90;;;;;;6259423;28;20057;-84
2023/11/12 01:46:44;;;;;;;17.15;8.40;;;3.00;99.90;;;;;;6225773;28;20057;-84
2023/11/12 01:49:46;;;;;;;18.27;9.00;;;3.10;99.90;;;;;;6267439;28;20056;-84
2023/11/12 01:52:47;;;;;;;23.00;9.60;;;3.20;99.90;;;;;;6250092;28;20056;-84
2023/11/12 01:55:49;;;;;;;19.80;8.70;;;3.20;99.90;;;;;;6244055;28;20493;-84
2023/11/12 01:58:51;;;;;;;18.98;8.15;;;3.30;99.90;;;;;;6247895;28;20041;-83
2023/11/12 02:01:52;;;;;;;18.88;7.88;;;3.30;99.90;;;;;;6228521;28;20424;-84
2023/11/12 02:04:54;;;;;;;16.27;8.07;;;3.40;99.90;;;;;;6254649;28;20056;-84
2023/11/12 02:07:56;;;;;;;14.48;7.63;;;3.50;99.90;;;;;;6272954;28;20057;-84
2023/11/12 02:10:59;;;;;;;16.25;7.10;;;3.50;99.90;;;;;;6230487;28;20053;-84
2023/11/12 02:14:01;;;;;;;14.30;6.55;;;3.60;99.90;;;;;;6243389;28;20057;-83
2023/11/12 02:17:02;;;;;;;15.32;6.68;;;3.60;99.90;;;;;;6242614;28;20131;-83
2023/11/12 02:20:04;;;;;;;18.38;6.90;;;3.70;99.90;;;;;;6272832;28;20056;-83
2023/11/12 02:23:06;;;;;;;16.35;6.43;;;3.70;99.90;;;;;;6247679;28;20489;-83
2023/11/12 02:26:08;;;;;;;13.50;6.20;;;3.80;99.90;;;;;;6253707;28;20061;-83
2023/11/12 02:29:10;;;;;;;12.75;6.35;;;3.80;99.90;;;;;;6240572;28;20499;-83
2023/11/12 02:32:11;;;;;;;12.93;6.28;;;3.90;99.90;;;;;;6253295;28;20056;-83
2023/11/12 02:35:13;;;;;;;12.90;6.63;;;4.00;99.90;;;;;;6254547;28;20165;-83
2023/11/12 02:38:14;;;;;;;13.57;6.15;;;4.10;99.90;;;;;;6230104;28;20133;-83
2023/11/12 02:41:18;;;;;;;13.18;6.05;;;4.10;99.90;;;;;;6253661;28;20057;-83
2023/11/12 02:44:19;;;;;;;16.60;6.82;;;4.10;99.90;;;;;;6240108;28;20049;-83
2023/11/12 02:47:21;;;;;;;18.77;6.47;;;4.10;99.90;;;;;;6253094;28;20107;-83
2023/11/12 02:50:24;;;;;;;16.42;6.07;;;4.20;99.90;;;;;;6252269;28;20065;-83
2023/11/12 02:53:26;;;;;;;16.65;7.07;;;4.30;99.90;;;;;;6261454;28;20060;-83
2023/11/12 02:56:27;;;;;;;15.10;5.90;;;4.30;99.90;;;;;;6233927;28;20402;-84
2023/11/12 02:59:29;;;;;;;14.10;6.45;;;4.30;99.90;;;;;;6254056;28;20102;-82
2023/11/12 03:02:32;;;;;;;14.77;5.70;;;4.20;99.90;;;;;;6260235;28;20052;-84
2023/11/12 03:05:34;;;;;;;13.50;6.25;;;4.20;99.90;;;;;;6232582;28;20099;-84
2023/11/12 03:08:35;;;;;;;12.70;6.40;;;4.30;99.90;;;;;;6254703;28;20056;-83
2023/11/12 03:11:37;;;;;;;16.10;6.20;;;4.30;99.90;;;;;;6233970;28;20057;-84
2023/11/12 03:14:39;;;;;;;13.13;5.75;;;4.20;99.90;;;;;;6239635;28;20491;-84
2023/11/12 03:17:41;;;;;;;12.70;5.63;;;4.20;99.90;;;;;;6246437;28;20064;-83
2023/11/12 03:20:42;;;;;;;11.05;5.35;;;4.10;99.90;;;;;;6232789;28;20054;-84
2023/11/12 03:23:44;;;;;;;14.60;6.22;;;4.10;99.90;;;;;;6256753;28;20079;-83
2023/11/12 03:26:46;;;;;;;10.30;5.88;;;4.10;99.90;;;;;;6259059;28;20101;-83
2023/11/12 03:29:47;;;;;;;9.10;5.07;;;4.20;99.90;;;;;;6264324;28;20052;-83
2023/11/12 03:32:49;;;;;;;13.13;5.68;;;4.30;99.90;;;;;;6228544;28;20060;-83
2023/11/12 03:35:54;;;;;;;10.70;5.80;;;4.30;99.90;;;;;;6252744;28;20057;-83
2023/11/12 03:38:55;;;;;;;12.45;5.68;;;4.30;99.90;;;;;;6252542;28;20565;-84
2023/11/12 03:41:58;;;;;;;15.77;6.45;;;4.40;99.90;;;;;;6228283;28;20630;-83
2023/11/12 03:44:59;;;;;;;13.60;6.20;;;4.50;99.90;;;;;;6268616;28;20064;-82
2023/11/12 03:48:01;;;;;;;17.30;7.38;;;4.70;99.90;;;;;;6252305;28;20045;-83
2023/11/12 03:51:03;;;;;;;17.05;7.22;;;4.90;99.90;;;;;;6228027;28;20614;-83
2023/11/12 03:54:04;;;;;;;14.02;6.20;;;5.10;99.90;;;;;;6269444;28;20053;-83
2023/11/12 03:57:06;;;;;;;10.93;6.25;;;5.10;99.90;;;;;;6227834;28;20061;-82
2023/11/12 04:00:08;;;;;;;12.85;6.13;;;5.20;99.90;;;;;;6267761;28;20057;-82
2023/11/12 04:03:10;;;;;;;14.95;5.18;;;5.40;99.90;;;;;;6228534;28;20049;-82
2023/11/12 04:06:12;;;;;;;13.55;6.03;;;5.50;99.90;;;;;;6252933;28;20083;-82
2023/11/12 04:09:13;;;;;;;11.38;5.57;;;5.60;99.90;;;;;;6253283;28;20059;-82
2023/11/12 04:12:15;;;;;;;10.90;5.30;;;5.60;99.90;;;;;;6234356;28;20056;-81
2023/11/12 04:15:17;;;;;;;13.05;5.18;;;5.50;99.90;;;;;;6292849;28;20660;-83
2023/11/12 04:18:18;;;;;;;11.57;5.38;;;5.60;99.90;;;;;;6250082;28;20084;-82
2023/11/12 04:21:20;;;;;;;15.40;5.78;;;5.50;99.90;;;;;;6251478;28;20053;-82
2023/11/12 04:24:22;;;;;;;11.43;5.32;;;5.50;99.90;;;;;;6251768;28;20506;-83
2023/11/12 04:27:23;;;;;;;10.63;5.30;;;5.50;99.90;;;;;;6249719;28;20143;-82
2023/11/12 04:30:25;;;;;;;12.65;5.38;;;5.60;99.90;;;;;;6266096;28;20067;-82
2023/11/12 04:33:27;;;;;;;11.57;5.38;;;5.60;99.90;;;;;;6244609;28;20168;-83
2023/11/12 04:36:30;;;;;;;14.60;5.95;;;5.60;99.90;;;;;;6250955;28;20056;-83
2023/11/12 04:39:32;;;;;;;12.73;5.93;;;5.60;99.90;;;;;;6227447;28;20069;-81
2023/11/12 04:42:34;;;;;;;10.38;5.03;;;5.70;99.90;;;;;;6268425;28;20056;-83
2023/11/12 04:45:36;;;;;;;11.82;5.78;;;5.70;99.90;;;;;;6225434;28;20180;-82
2023/11/12 04:48:38;;;;;;;9.68;5.38;;;5.70;99.90;;;;;;6267969;28;20053;-82
2023/11/12 04:51:40;;;;;;;11.02;5.43;;;5.80;99.90;;;;;;6226357;28;20524;-82
2023/11/12 04:54:42;;;;;;;10.13;5.32;;;5.70;99.90;;;;;;6250858;28;20067;-82
2023/11/12 04:57:43;;;;;;;12.98;5.57;;;5.80;99.90;;;;;;6244439;28;20045;-82
2023/11/12 05:00:45;;;;;;;10.18;5.30;;;5.90;99.90;;;;;;6248569;28;20095;-82
2023/11/12 05:03:47;;;;;;;11.35;5.25;;;5.80;99.90;;;;;;6245714;28;20075;-82
2023/11/12 05:06:48;;;;;;;14.63;5.10;;;5.90;99.90;;;;;;6268108;28;20052;-82
2023/11/12 05:09:50;;;;;;;9.50;4.72;;;6.00;99.90;;;;;;6263508;28;20056;-81
2023/11/12 05:12:52;;;;;;;10.10;5.05;;;6.00;99.90;;;;;;6243846;28;20049;-81
2023/11/12 05:15:53;;;;;;;12.23;6.15;;;6.10;99.90;;;;;;6266652;28;20045;-80
2023/11/12 05:18:55;;;;;;;15.68;6.70;;;6.10;99.90;;;;;;6225787;28;20730;-81
2023/11/12 05:21:57;;;;;;;13.00;6.65;;;6.10;99.90;;;;;;6267742;28;20060;-80
2023/11/12 05:24:58;;;;;;;16.23;6.72;;;6.00;99.90;;;;;;6243986;28;20793;-81
2023/11/12 05:28:00;;;;;;;14.57;6.88;;;6.00;99.90;;;;;;6265970;28;20053;-81
2023/11/12 05:31:01;;;;;;;11.05;6.50;;;6.10;99.90;;;;;;6240670;28;20061;-80
2023/11/12 05:34:03;;;;;;;11.25;6.57;;;6.00;99.90;;;;;;6226127;28;20056;-81
2023/11/12 05:37:05;;;;;;;11.88;6.25;;;6.10;99.90;;;;;;6270342;28;20059;-81
2023/11/12 05:40:08;;;;;;;14.30;6.20;;;6.10;99.90;;;;;;6249053;28;20412;-81
2023/11/12 05:43:10;;;;;;;12.77;6.50;;;6.10;99.90;;;;;;6270327;28;20056;-83
2023/11/12 05:46:12;;;;;;;14.50;6.32;;;6.10;99.90;;;;;;6254786;28;20063;-81
2023/11/12 05:49:14;;;;;;;15.60;7.00;;;6.10;99.90;;;;;;6247084;28;20053;-81
2023/11/12 05:52:15;;;;;;;12.32;6.00;;;6.10;99.90;;;;;;6271901;28;20825;-81
2023/11/12 05:55:17;;;;;;;10.98;5.68;;;6.10;99.90;;;;;;6248374;28;20065;-81
2023/11/12 05:58:20;;;;;;;13.95;6.50;;;6.10;99.90;;;;;;6251092;28;20049;-83
2023/11/12 06:01:22;;;;;;;16.98;6.72;;;6.00;99.90;;;;;;6254626;28;20053;-82
2023/11/12 06:04:23;;;;;;;15.90;6.70;;;6.10;99.90;;;;;;6247808;28;20416;-82
2023/11/12 06:07:25;;;;;;;13.25;6.22;;;6.10;99.90;;;;;;6251109;28;20068;-83
2023/11/12 06:10:29;;;;;;;15.65;7.40;;;6.00;99.90;;;;;;6229981;28;20049;-83
2023/11/12 06:13:30;;;;;;;12.52;6.32;;;6.10;99.90;;;;;;6247141;28;20057;-82
2023/11/12 06:16:33;;;;;;;17.65;7.05;;;6.10;99.90;;;;;;6229899;28;20076;-82
2023/11/12 06:19:34;;;;;;;14.02;7.20;;;6.10;99.90;;;;;;6271966;28;20091;-82
2023/11/12 06:22:36;;;;;;;14.65;7.15;;;6.10;99.90;;;;;;6254520;28;20204;-81
2023/11/12 06:25:38;;;;;;;16.38;7.57;;;6.10;99.90;;;;;;6248496;28;20065;-82
2023/11/12 06:28:39;;;;;;;14.98;7.25;;;6.10;99.90;;;;;;6262357;28;20053;-81
2023/11/12 06:31:41;;;;;;;13.45;7.15;;;6.20;99.90;;;;;;6230274;28;20053;-81
2023/11/12 06:34:43;;;;;;;13.35;7.30;;;6.20;99.90;;;;;;6272411;28;20446;-81
2023/11/12 06:37:44;;;;;;;12.15;6.70;;;6.20;99.90;;;;;;6272524;28;20527;-81
2023/11/12 06:40:46;;;;;;;14.55;6.63;;;6.20;99.90;;;;;;6248463;28;20096;-82
2023/11/12 06:43:47;;;;;;;17.05;6.53;;;6.20;99.90;;;;;;6270552;28;20048;-82
2023/11/12 06:46:49;;;;;;;11.57;6.75;;;6.20;99.90;;;;;;6271826;28;20684;-81
2023/11/12 06:49:50;;;;;;;13.55;7.05;;;6.20;99.90;;;;;;6247449;28;20094;-82
2023/11/12 06:52:56;;;;;;;20.33;7.47;;;6.20;99.90;;;;;;6246473;28;20068;-82
2023/11/12 06:55:57;;;;;;;12.75;6.50;;;6.20;99.90;;;;;;6270518;28;20055;-81
2023/11/12 06:58:59;;;;;;;14.93;6.88;;;6.20;99.90;;;;;;6254012;28;20463;-81
2023/11/12 07:02:01;;;;;;;12.50;7.10;;;6.30;99.90;;;;;;6247014;28;20128;-82
2023/11/12 07:05:04;;;;;;;11.73;6.68;;;6.20;99.90;;;;;;6270281;28;20508;-81
2023/11/12 07:08:06;;;;;;;14.48;7.07;;;6.20;99.90;;;;;;6226897;28;20440;-81
2023/11/12 07:11:09;;;;;;;14.20;6.90;;;6.20;99.90;;;;;;6246388;28;20064;-81
2023/11/12 07:14:10;;;;;;;14.70;7.47;;;6.30;99.90;;;;;;6257829;28;20049;-82
2023/11/12 07:17:12;;;;;;;12.23;6.47;;;6.20;99.90;;;;;;6264225;28;20686;-82
2023/11/12 07:20:14;;;;;;;14.27;7.18;;;6.30;99.90;;;;;;6228545;28;20057;-81
2023/11/12 07:23:16;;;;;;;13.95;7.47;;;6.20;99.90;;;;;;6270812;28;20057;-81
2023/11/12 07:26:17;;;;;;;13.63;6.78;;;6.20;99.90;;;;;;6271264;28;20056;-81
2023/11/12 07:29:19;;;;;;;13.98;7.20;;;6.30;99.90;;;;;;6256094;28;20095;-81
2023/11/12 07:32:20;;;;;;;13.05;6.70;;;6.30;99.90;;;;;;6228737;28;20045;-81
2023/11/12 07:35:23;;;;;;;15.52;6.80;;;6.30;99.90;;;;;;6252851;28;20428;-81
2023/11/12 07:38:24;;;;;;;15.43;7.18;;;6.20;99.90;;;;;;6271295;28;20081;-81
2023/11/12 07:41:26;;;;;;;11.90;6.78;;;6.20;99.90;;;;;;6246998;28;20053;-82
2023/11/12 07:44:27;;;;;;;15.82;7.43;;;6.20;99.90;;;;;;6255820;28;20386;-82
2023/11/12 07:47:30;;;;;;;13.20;7.07;;;6.30;99.90;;;;;;6252858;28;20122;-81
2023/11/12 07:50:32;;;;;;;14.13;7.50;;;6.30;99.90;;;;;;6253152;28;20053;-81
2023/11/12 07:53:33;;;;;;;12.45;6.88;;;6.40;99.90;;;;;;6246538;28;20064;-81
2023/11/12 07:56:35;;;;;;;14.13;7.43;;;6.40;99.90;;;;;;6252124;28;20056;-82
2023/11/12 07:59:43;;;;;;;12.20;6.70;;;6.50;99.90;;;;;;6238451;28;20084;-82
2023/11/12 08:02:47;;;;;;;12.57;6.97;;;6.50;99.90;;;;;;6245317;28;20113;-82
2023/11/12 08:05:48;;;;;;;12.98;6.80;;;6.50;99.90;;;;;;6269216;28;20041;-81
2023/11/12 08:08:50;;;;;;;12.27;7.13;;;6.60;99.90;;;;;;6243308;28;20061;-82
2023/11/12 08:11:52;;;;;;;14.05;7.22;;;6.70;99.90;;;;;;6268549;28;20135;-82
2023/11/12 08:14:53;;;;;;;13.13;7.05;;;6.70;99.90;;;;;;6225683;28;20049;-81
2023/11/12 08:17:55;;;;;;;11.13;6.68;;;6.70;99.90;;;;;;6251028;28;20111;-81
2023/11/12 08:20:56;;;;;;;12.60;6.95;;;6.90;99.90;;;;;;6245681;28;20500;-81
2023/11/12 08:23:58;;;;;;;12.85;7.60;;;6.90;99.90;;;;;;6269491;28;20381;-82
2023/11/12 08:27:03;;;;;;;16.35;7.90;;;6.90;99.90;;;;;;6267826;28;20103;-82
2023/11/12 08:30:05;;;;;;;18.55;7.82;;;7.00;99.90;;;;;;6292888;28;20057;-82
2023/11/12 08:33:07;;;;;;;18.92;9.43;;;7.10;99.90;;;;;;6270385;28;20069;-82
2023/11/12 08:36:09;;;;;;;17.27;7.55;;;7.10;99.90;;;;;;6275467;28;20060;-82
2023/11/12 08:39:12;;;;;;;13.95;7.55;;;7.20;99.90;;;;;;6259317;28;20385;-82
2023/11/12 08:42:14;;;;;;;14.30;7.15;;;7.30;99.90;;;;;;6227375;28;20053;-82
2023/11/12 08:45:15;;;;;;;17.08;7.82;;;7.40;99.90;;;;;;6266727;28;20136;-82
2023/11/12 08:48:18;;;;;;;14.35;7.45;;;7.40;99.90;;;;;;6244998;28;20144;-83
2023/11/12 08:51:19;;;;;;;13.98;7.78;;;7.40;99.90;;;;;;6251062;28;20389;-81
2023/11/12 08:54:21;;;;;;;14.88;7.88;;;7.50;99.90;;;;;;6268653;28;20776;-81
2023/11/12 08:57:23;;;;;;;15.50;8.25;;;7.60;99.90;;;;;;6226723;28;20416;-81
2023/11/12 09:00:24;;;;;;;14.55;7.68;;;7.60;99.90;;;;;;6263799;28;20053;-81
2023/11/12 09:03:26;;;;;;;14.98;8.00;;;7.70;99.90;;;;;;6226451;28;20137;-81
2023/11/12 09:06:28;;;;;;;14.43;7.90;;;7.70;99.90;;;;;;6267959;28;20064;-81
2023/11/12 09:09:30;;;;;;;15.48;7.63;;;7.80;99.90;;;;;;6243052;28;20361;-81
2023/11/12 09:12:32;;;;;;;16.48;7.47;;;7.80;99.90;;;;;;6248002;28;20071;-81
2023/11/12 09:15:33;;;;;;;18.67;9.85;;;7.80;99.90;;;;;;6253978;28;20045;-82
2023/11/12 09:18:35;;;;;;;16.73;8.23;;;7.90;99.90;;;;;;6249503;28;20068;-81
2023/11/12 09:21:37;;;;;;;13.40;7.20;;;7.90;99.90;;;;;;6255283;28;20175;-82
2023/11/12 09:24:38;;;;;;;13.98;7.53;;;7.90;99.90;;;;;;6255181;28;20055;-82
2023/11/12 09:28:00;;;;;;;15.85;7.43;;;8.00;99.90;;;;;;6248986;28;20049;-82
2023/11/12 09:31:02;;;;;;;13.63;8.10;;;8.00;99.90;;;;;;6254139;28;20520;-83
2023/11/12 09:34:04;;;;;;;13.40;8.05;;;8.10;99.90;;;;;;6247349;28;20057;-83
2023/11/12 09:37:05;;;;;;;14.05;7.50;;;8.20;99.90;;;;;;6272310;28;20049;-83
2023/11/12 09:40:10;;;;;;;14.98;7.50;;;8.20;99.90;;;;;;6231100;28;20560;-83
2023/11/12 09:43:12;;;;;;;14.82;7.53;;;8.30;99.90;;;;;;6268444;28;20560;-83
2023/11/12 09:46:14;;;;;;;14.00;7.22;;;8.30;99.90;;;;;;6248521;28;20066;-82
2023/11/12 09:49:16;;;;;;;14.45;7.93;;;8.30;99.90;;;;;;6255023;28;20049;-83
2023/11/12 09:52:17;;;;;;;17.33;8.02;;;8.30;99.90;;;;;;6230692;28;20092;-82
2023/11/12 09:55:19;;;;;;;15.32;8.68;;;8.30;99.90;;;;;;6254831;28;20596;-82
2023/11/12 09:58:21;;;;;;;16.40;8.68;;;8.30;99.90;;;;;;6252275;28;20049;-82
2023/11/12 10:01:24;;;;;;;14.68;8.45;;;8.20;99.90;;;;;;6255162;28;20060;-82
2023/11/12 10:04:26;;;;;;;15.38;9.15;;;8.30;99.90;;;;;;6230634;28;20061;-83
2023/11/12 10:07:28;;;;;;;14.32;8.40;;;8.30;99.90;;;;;;6268274;28;20517;-82
2023/11/12 10:10:30;;;;;;;14.85;8.75;;;8.40;99.90;;;;;;6255086;28;20056;-82
2023/11/12 10:13:32;;;;;;;17.02;8.93;;;8.40;99.90;;;;;;6252512;28;20049;-82
2023/11/12 10:16:34;;;;;;;16.58;8.48;;;8.50;99.90;;;;;;6261132;28;20056;-82
2023/11/12 10:19:37;;;;;;;16.08;8.50;;;8.60;99.90;;;;;;6257907;28;20064;-81
2023/11/12 10:22:39;;;;;;;15.68;7.68;;;8.80;99.90;;;;;;6263784;28;20130;-83
2023/11/12 10:25:40;;;;;;;16.67;7.75;;;8.90;99.90;;;;;;6266096;28;20059;-81
2023/11/12 10:28:42;;;;;;;14.90;6.63;;;8.90;99.90;;;;;;6262105;28;20045;-82
2023/11/12 10:31:44;;;;;;;13.02;6.40;;;9.00;99.90;;;;;;6282284;28;20064;-83
2023/11/12 10:34:46;;;;;;;15.85;6.57;;;9.10;99.90;;;;;;6238453;28;20061;-83
2023/11/12 10:37:47;;;;;;;15.25;6.57;;;9.10;99.90;;;;;;6259024;28;20056;-82
2023/11/12 10:40:50;;;;;;;15.57;6.47;;;9.20;99.90;;;;;;6230738;28;20065;-82
2023/11/12 10:43:52;;;;;;;15.23;6.18;;;9.20;99.90;;;;;;6252981;28;20100;-82
2023/11/12 10:46:53;;;;;;;12.18;6.50;;;9.20;99.90;;;;;;6229823;28;20080;-82
2023/11/12 10:49:55;;;;;;;13.95;6.32;;;9.30;99.90;;;;;;6253365;28;20135;-82
2023/11/12 10:52:57;;;;;;;15.63;7.00;;;9.40;99.90;;;;;;6254214;28;20049;-82
2023/11/12 10:55:59;;;;;;;10.35;5.97;;;9.50;99.90;;;;;;6248862;28;20050;-82
2023/11/12 10:59:01;;;;;;;13.80;6.20;;;9.40;99.90;;;;;;6251722;28;20056;-81
2023/11/12 11:02:03;;;;;;;13.73;6.22;;;9.40;99.90;;;;;;6229292;28;20111;-82
2023/11/12 11:05:05;;;;;;;11.80;6.20;;;9.50;99.90;;;;;;6270303;28;20072;-82
2023/11/12 11:08:06;;;;;;;11.98;5.70;;;9.80;99.90;;;;;;6227273;28;20050;-82
2023/11/12 11:11:08;;;;;;;9.57;5.30;;;9.90;99.90;;;;;;6246293;28;20454;-82
2023/11/12 11:14:12;;;;;;;14.45;6.07;;;10.20;99.90;;;;;;6259128;28;20084;-82
2023/11/12 11:17:14;;;;;;;11.90;5.28;;;10.50;99.90;;;;;;6252203;28;20056;-83
2023/11/12 11:20:16;;;;;;;8.77;4.55;;;10.60;99.90;;;;;;6252620;28;20088;-82
2023/11/12 11:23:18;;;;;;;14.75;5.72;;;10.80;99.90;;;;;;6228890;28;20400;-82
2023/11/12 11:26:19;;;;;;;11.80;5.20;;;11.30;99.90;;;;;;6252917;28;20064;-82
2023/11/12 11:29:21;;;;;;;10.25;4.57;;;12.10;99.90;;;;;;6239329;28;20053;-82
2023/11/12 11:32:23;;;;;;;7.88;4.45;;;12.70;96.60;;;;;;6253062;28;20423;-82
2023/11/12 11:35:25;;;;;;;11.68;4.78;;;12.70;96.70;;;;;;6230532;28;20130;-82
2023/11/12 11:38:27;;;;;;;8.68;3.38;;;12.50;96.20;;;;;;6270413;28;20547;-82
2023/11/12 11:41:29;;;;;;;8.10;2.90;;;12.30;95.30;;;;;;6259083;28;20529;-82
2023/11/12 11:44:30;;;;;;;7.97;3.33;;;11.90;95.10;;;;;;6263436;28;20053;-83
2023/11/12 11:47:32;;;;;;;9.55;4.00;;;11.70;95.10;;;;;;6239508;28;20064;-82
2023/11/12 11:50:33;;;;;;;8.18;3.45;;;11.50;98.10;;;;;;6277515;28;20393;-83
2023/11/12 11:53:47;;;;;;;8.68;3.13;;;11.40;98.00;;;;;;6230482;28;20057;-83
2023/11/12 11:56:49;;;;;;;7.90;3.00;;;11.40;98.20;;;;;;6271830;28;20045;-84
2023/11/12 11:59:51;;;;;;;7.80;2.60;;;11.20;97.90;;;;;;6243872;28;20049;-82
2023/11/12 12:02:54;;;;;;;6.13;2.42;;;11.20;98.80;;;;;;6228090;28;20710;-83
2023/11/12 12:05:57;;;;;;;6.53;2.60;;;11.30;98.30;;;;;;6251912;28;20053;-79
2023/11/12 12:08:58;;;;;;;11.05;3.25;;;11.30;99.20;;;;;;6250564;28;20060;-83
2023/11/12 12:12:00;;;;;;;7.57;2.97;;;11.10;98.80;;;;;;6267473;28;20574;-84
2023/11/12 12:15:02;;;;;;;7.18;2.97;;;11.10;99.90;;;;;;6227084;28;20053;-82
2023/11/12 12:18:04;;;;;;;9.35;3.15;;;11.10;99.90;;;;;;6238381;28;20060;-85
2023/11/12 12:21:06;;;;;;;8.95;3.58;;;11.10;99.60;;;;;;6264195;28;20434;-86
2023/11/12 12:24:08;;;;;;;9.93;3.22;;;11.10;99.90;;;;;;6249250;28;20057;-82
2023/11/12 12:27:12;;;;;;;9.02;2.95;;;11.10;99.90;;;;;;6227647;28;20053;-81
2023/11/12 12:30:14;;;;;;;8.57;2.85;;;11.10;99.90;;;;;;6246472;28;20579;-82
2023/11/12 12:33:16;;;;;;;4.88;2.00;;;11.20;99.30;;;;;;6233537;28;20052;-83
2023/11/12 12:36:17;;;;;;;6.50;2.00;;;11.10;98.10;;;;;;6257366;28;20092;-82
2023/11/12 12:39:19;;;;;;;7.18;2.00;;;11.00;97.40;;;;;;6243831;28;20064;-82
2023/11/12 12:42:21;;;;;;;6.32;1.70;;;11.00;97.90;;;;;;6232409;28;20136;-86
2023/11/12 12:45:23;;;;;;;6.38;1.75;;;10.90;97.10;;;;;;6250130;28;20485;-81
2023/11/12 12:48:24;;;;;;;3.58;1.67;;;10.90;98.40;;;;;;6257264;28;20049;-87
2023/11/12 12:51:28;;;;;;;9.20;1.98;;;11.10;98.70;;;;;;6239167;28;20049;-87
2023/11/12 12:54:29;;;;;;;5.18;2.13;;;11.20;98.00;;;;;;6236408;28;20061;-87
2023/11/12 12:57:31;;;;;;;5.05;2.35;;;11.20;97.00;;;;;;6248322;28;20045;-86
2023/11/12 13:00:35;;;;;;;4.45;1.52;;;11.10;96.20;;;;;;6265317;28;20506;-87
2023/11/12 13:03:39;;;;;;;5.95;1.98;;;11.00;96.30;;;;;;6266442;28;20413;-89
2023/11/12 13:06:42;;;;;;;5.47;1.92;;;10.90;96.60;;;;;;6243576;28;20503;-87
2023/11/12 13:09:44;;;;;;;4.25;1.98;;;10.90;97.90;;;;;;6236300;28;20057;-88
2023/11/12 13:12:47;;;;;;;5.18;1.80;;;11.00;96.60;;;;;;6228788;28;20053;-83
2023/11/12 13:15:49;;;;;;;4.10;1.70;;;11.00;97.30;;;;;;6231704;28;20049;-87
2023/11/12 13:18:51;;;;;;;9.68;2.10;;;11.10;96.30;;;;;;6237916;28;20054;-87
2023/11/12 13:21:53;;;;;;;9.15;1.90;;;11.10;96.30;;;;;;6250401;28;20071;-86
2023/11/12 13:25:04;;;;;;;5.78;1.90;;;11.00;95.80;;;;;;6251958;28;20052;-87
2023/11/12 13:28:08;;;;;;;11.15;1.90;;;11.00;96.60;;;;;;6237237;28;20519;-83
2023/11/12 13:31:11;;;;;;;7.15;2.20;;;10.90;97.00;;;;;;6243723;28;20050;-87
2023/11/12 13:34:16;;;;;;;5.47;1.80;;;10.90;95.70;;;;;;6250311;28;20071;-91
2023/11/12 13:37:18;;;;;;;5.03;1.80;;;10.80;95.80;;;;;;6252818;28;20092;-93
2023/11/12 13:40:20;;;;;;;5.38;1.80;;;10.70;95.70;;;;;;6271989;28;20067;-91
2023/11/12 13:43:22;;;;;;;7.25;2.10;;;10.60;95.30;;;;;;6231720;28;20053;-88
2023/11/12 13:46:25;;;;;;;4.45;1.80;;;10.50;96.40;;;;;;6255388;28;20064;-84
2023/11/12 13:49:28;;;;;;;4.90;1.88;;;10.60;97.30;;;;;;6252501;28;20049;-93
2023/11/12 13:52:32;;;;;;;5.57;2.22;;;10.60;95.70;;;;;;6257177;28;20057;-93
2023/11/12 13:55:43;;;;;;;5.32;2.03;;;10.70;97.80;;;;;;6240578;28;20054;-95
2023/11/12 13:58:52;;;;;;;6.68;1.85;;;10.80;97.60;;;;;;6257979;28;20045;-96
2023/11/12 14:02:16;;;;;;;8.43;1.92;;;11.00;95.80;;;;;;6260643;28;20106;-93
2023/11/12 14:05:20;;;;;;;4.45;1.80;;;11.10;94.30;;;;;;6247214;28;20049;-94
2023/11/12 14:08:22;;;;;;;9.00;1.75;;;11.00;95.90;;;;;;6281296;28;20049;-94
2023/11/12 14:11:24;;;;;;;4.65;1.90;;;10.90;96.50;;;;;;6259685;28;20136;-88
2023/11/12 14:14:27;;;;;;;4.70;1.67;;;10.80;95.50;;;;;;6261276;28;20060;-88
2023/11/12 14:17:29;;;;;;;7.68;2.10;;;10.80;96.20;;;;;;6245153;28;20128;-94
2023/11/12 14:20:33;;;;;;;6.32;2.00;;;10.60;95.70;;;;;;6263455;28;20056;-92
2023/11/12 14:23:35;;;;;;;6.20;2.00;;;10.50;96.50;;;;;;6249549;28;20057;-91
2023/11/12 14:26:37;;;;;;;5.38;2.28;;;10.50;96.80;;;;;;6245869;28;20714;-89
2023/11/12 14:29:39;;;;;;;5.50;1.90;;;10.40;96.70;;;;;;6245970;28;20393;-91
2023/11/12 14:32:41;;;;;;;6.82;1.73;;;10.30;96.60;;;;;;6239192;28;20046;-91
2023/11/12 14:35:43;;;;;;;6.35;2.40;;;10.30;97.40;;;;;;6261999;28;20053;-92
2023/11/12 14:38:44;;;;;;;5.55;2.17;;;10.30;97.70;;;;;;6238275;28;20052;-92
2023/11/12 14:41:46;;;;;;;5.10;1.92;;;10.30;97.60;;;;;;6260800;28;20072;-91
2023/11/12 14:44:51;;;;;;;6.13;2.20;;;10.20;97.90;;;;;;6246047;28;20048;-95
2023/11/12 14:47:52;;;;;;;4.93;1.90;;;10.30;97.40;;;;;;6263917;28;20048;-94
2023/11/12 14:50:54;;;;;;;6.25;2.03;;;10.20;97.40;;;;;;6264036;28;20052;-93
2023/11/12 14:53:58;;;;;;;7.40;2.08;;;10.20;97.70;;;;;;6248372;28;20116;-93
2023/11/12 14:57:06;;;;;;;5.38;2.00;;;10.20;98.00;;;;;;6245202;28;20049;-90
2023/11/12 15:00:12;;;;;;;5.40;2.03;;;10.10;98.80;;;;;;6279965;28;20052;-94
2023/11/12 15:03:14;;;;;;;5.70;2.17;;;10.00;99.00;;;;;;6259742;28;20048;-91
2023/11/12 15:06:16;;;;;;;10.80;2.42;;;10.00;98.90;;;;;;6257347;28;20487;-93
2023/11/12 15:09:17;;;;;;;5.03;2.05;;;9.90;99.80;;;;;;6268687;28;20393;-93
2023/11/12 15:12:20;;;;;;;10.43;2.53;;;9.80;99.90;;;;;;6268141;28;20060;-90
2023/11/12 15:15:22;;;;;;;7.07;2.15;;;9.80;99.90;;;;;;6251130;28;20049;-90
2023/11/12 15:18:23;;;;;;;8.68;2.50;;;9.70;99.90;;;;;;6226222;28;20514;-93
2023/11/12 15:21:25;;;;;;;7.78;2.50;;;9.70;99.90;;;;;;6214618;28;20050;-86
2023/11/12 15:24:27;;;;;;;7.15;2.78;;;9.70;99.90;;;;;;6218902;28;20050;-86
2023/11/12 15:27:28;;;;;;;7.63;3.10;;;9.60;99.90;;;;;;6206351;28;20129;-90
2023/11/12 15:30:30;;;;;;;6.75;3.03;;;9.60;99.90;;;;;;6207715;28;20053;-88
2023/11/12 15:37:00;;;;;;;15.40;5.38;;;9.60;99.90;;;;;;6170713;28;20090;-95
2023/11/12 15:40:10;;;;;;;10.15;3.88;;;9.50;99.90;;;;;;6211837;28;20039;-95
2023/11/12 15:43:13;;;;;;;10.13;4.45;;;9.50;99.90;;;;;;6247838;23;20034;-95
2023/11/12 15:46:19;;;;;;;24.92;11.18;;;9.50;99.90;;;;;;6297336;23;20084;-95
2023/11/12 15:49:21;;;;;;;23.38;9.85;;;9.50;99.90;;;;;;6238001;28;20684;-93